Time;durP1;ratioP1;P1;durP2;ratioP2;P2;SDS_P1;SDS_P2;PMS_P1;PMS_P2;Temp;Humidity;BMP_temperature;BMP_pressure;BME280_temperature;BME280_humidity;BME280_pressure;Samples;Min_cycle;Max_cycle;Signal;HPM_P1;HPM_P2
2022/08/27 00:01:22;;;;;;;4.60;2.28;;;;;;;16.12;100.00;100646.38;4952544;28;20466;-73
2022/08/27 00:03:47;;;;;;;5.50;1.88;;;;;;;16.07;100.00;100646.66;4950715;28;20042;-73
2022/08/27 00:06:15;;;;;;;7.20;1.90;;;;;;;16.03;100.00;100642.53;4934940;28;20027;-74
2022/08/27 00:08:44;;;;;;;6.72;2.05;;;;;;;16.01;100.00;100636.50;4934969;29;20393;-73
2022/08/27 00:11:11;;;;;;;7.30;2.50;;;;;;;15.79;100.00;100607.09;4966892;28;20085;-73
2022/08/27 00:13:37;;;;;;;5.20;2.70;;;;;;;15.76;100.00;100599.34;4966106;28;20093;-73
2022/08/27 00:16:05;;;;;;;4.72;2.00;;;;;;;16.02;100.00;100651.41;4966634;28;20110;-73
2022/08/27 00:18:32;;;;;;;16.00;2.90;;;;;;;15.85;100.00;100636.66;4926330;28;20035;-73
2022/08/27 00:20:57;;;;;;;4.00;2.13;;;;;;;15.75;100.00;100634.75;4946783;28;20042;-73
2022/08/27 00:23:23;;;;;;;6.18;2.33;;;;;;;15.87;100.00;100641.88;4950499;28;20035;-73
2022/08/27 00:25:48;;;;;;;7.93;2.42;;;;;;;15.80;100.00;100646.75;4951772;28;20452;-73
2022/08/27 00:28:14;;;;;;;5.82;2.78;;;;;;;15.59;100.00;100634.09;4951533;28;20027;-73
2022/08/27 00:30:39;;;;;;;3.47;1.83;;;;;;;15.53;100.00;100645.09;4951534;28;20027;-73
2022/08/27 00:33:04;;;;;;;4.78;1.85;;;;;;;15.43;100.00;100641.34;4956126;28;20039;-75
2022/08/27 00:35:30;;;;;;;9.02;2.42;;;;;;;15.38;100.00;100640.81;4952071;28;20041;-72
2022/08/27 00:37:55;;;;;;;4.55;2.33;;;;;;;15.17;100.00;100625.38;4951057;29;20046;-71
2022/08/27 00:40:21;;;;;;;4.40;2.20;;;;;;;15.21;100.00;100641.88;4947603;29;20475;-72
2022/08/27 00:42:47;;;;;;;7.05;2.47;;;;;;;15.02;100.00;100626.38;4942629;28;20081;-71
2022/08/27 00:45:14;;;;;;;11.80;2.28;;;;;;;15.14;100.00;100643.25;4951043;28;20474;-71
2022/08/27 00:47:44;;;;;;;3.85;2.00;;;;;;;15.11;100.00;100646.94;4951730;28;20031;-71
2022/08/27 00:50:13;;;;;;;7.03;2.55;;;;;;;15.06;100.00;100643.75;4934839;28;20039;-72
2022/08/27 00:52:53;;;;;;;5.20;2.22;;;;;;;15.03;100.00;100643.94;4951746;28;20023;-72
2022/08/27 00:55:21;;;;;;;5.47;2.55;;;;;;;14.97;100.00;100646.97;4951739;28;20077;-72
2022/08/27 00:57:52;;;;;;;5.20;2.15;;;;;;;14.92;100.00;100641.13;4934826;29;20535;-72
2022/08/27 01:00:18;;;;;;;6.25;2.30;;;;;;;14.89;100.00;100638.69;4950975;28;20466;-72
2022/08/27 01:02:46;;;;;;;13.30;2.40;;;;;;;14.83;100.00;100650.53;4891383;28;1410258;-73
2022/08/27 01:05:14;;;;;;;5.20;2.28;;;;;;;14.59;100.00;100616.84;4952605;28;20027;-73
2022/08/27 01:07:42;;;;;;;6.10;2.70;;;;;;;14.75;100.00;100641.38;4939564;28;20023;-73
2022/08/27 01:10:12;;;;;;;5.45;2.35;;;;;;;14.72;100.00;100642.41;4952557;28;20090;-73
2022/08/27 01:12:37;;;;;;;6.50;2.08;;;;;;;14.70;100.00;100641.66;4934881;29;20057;-72
2022/08/27 01:15:07;;;;;;;5.18;2.17;;;;;;;14.60;100.00;100623.84;4951724;28;20039;-72
2022/08/27 01:17:32;;;;;;;7.57;2.42;;;;;;;14.58;100.00;100626.56;4952232;28;20034;-73
2022/08/27 01:20:01;;;;;;;6.45;2.95;;;;;;;14.58;100.00;100631.84;4951623;28;20393;-73
2022/08/27 01:22:57;;;;;;;4.05;2.67;;;;;;;14.63;100.00;100634.22;4966742;28;20244;-73
2022/08/27 01:25:24;;;;;;;13.63;3.22;;;;;;;14.39;100.00;100594.28;4939410;29;20122;-73
2022/08/27 01:27:50;;;;;;;6.80;2.83;;;;;;;14.50;100.00;100612.13;4964676;28;20380;-73
2022/08/27 01:30:19;;;;;;;4.80;2.67;;;;;;;14.58;100.00;100631.00;4971770;28;20460;-73
2022/08/27 01:32:47;;;;;;;4.00;2.65;;;;;;;14.55;100.00;100623.25;4987826;28;20028;-71
2022/08/27 01:35:16;;;;;;;6.22;2.40;;;;;;;14.14;100.00;100562.38;4934154;28;20015;-71
2022/08/27 01:37:43;;;;;;;6.70;3.17;;;;;;;14.49;100.00;100632.44;4952428;28;20027;-71
2022/08/27 01:40:09;;;;;;;4.93;2.22;;;;;;;14.46;100.00;100629.13;4934878;28;20028;-72
2022/08/27 01:42:38;;;;;;;4.25;2.42;;;;;;;14.40;100.00;100621.59;4934297;29;20031;-72
2022/08/27 01:45:29;;;;;;;5.15;2.75;;;;;;;14.26;100.00;100603.91;4952035;28;20043;-72
2022/08/27 01:47:54;;;;;;;5.00;2.33;;;;;;;14.34;100.00;100628.09;4936664;29;20105;-71
2022/08/27 01:50:24;;;;;;;4.63;2.35;;;;;;;14.31;100.00;100622.97;4967450;28;20462;-72
2022/08/27 01:52:50;;;;;;;5.15;2.67;;;;;;;14.27;100.00;100630.22;4944090;29;20988;-72
2022/08/27 01:55:18;;;;;;;8.23;3.05;;;;;;;13.99;100.00;100592.38;4919709;28;20066;-72
2022/08/27 01:57:44;;;;;;;5.93;2.97;;;;;;;13.88;100.00;100606.25;4951690;29;20472;-72
2022/08/27 02:00:14;;;;;;;6.88;2.72;;;;;;;14.01;100.00;100635.41;4950068;28;20412;-71
2022/08/27 02:02:40;;;;;;;7.00;2.90;;;;;;;13.90;100.00;100633.41;4951859;28;20042;-72
2022/08/27 02:05:05;;;;;;;5.25;2.25;;;;;;;13.90;100.00;100629.91;4949465;28;20027;-73
2022/08/27 02:07:31;;;;;;;7.82;3.25;;;;;;;13.72;100.00;100605.47;4951947;28;20028;-73
2022/08/27 02:09:56;;;;;;;5.25;2.50;;;;;;;13.78;100.00;100618.31;4951402;29;20031;-73
2022/08/27 02:12:22;;;;;;;8.18;3.00;;;;;;;13.80;100.00;100629.63;4952242;28;20128;-72
2022/08/27 02:14:47;;;;;;;4.78;2.70;;;;;;;13.73;100.00;100623.00;4949096;28;20031;-73
2022/08/27 02:17:13;;;;;;;6.45;2.80;;;;;;;13.81;100.00;100639.25;4951800;28;20031;-73
2022/08/27 02:19:38;;;;;;;3.47;2.10;;;;;;;13.63;100.00;100604.22;4951878;28;20450;-72
2022/08/27 02:22:03;;;;;;;5.88;3.25;;;;;;;13.78;100.00;100631.50;4951824;28;20054;-72
2022/08/27 02:24:29;;;;;;;6.68;3.20;;;;;;;13.73;100.00;100623.00;4950794;28;20055;-72
2022/08/27 02:26:55;;;;;;;6.93;2.97;;;;;;;13.52;100.00;100597.88;4951418;28;20462;-72
2022/08/27 02:29:21;;;;;;;5.45;3.08;;;;;;;13.64;100.00;100620.91;4947678;28;20118;-72
2022/08/27 02:31:47;;;;;;;4.60;3.05;;;;;;;13.62;100.00;100622.81;4947304;28;20457;-72
2022/08/27 02:34:12;;;;;;;13.32;3.20;;;;;;;13.60;100.00;100625.53;4951995;28;20035;-72
2022/08/27 02:36:37;;;;;;;10.43;3.17;;;;;;;13.52;100.00;100611.91;4951583;28;20115;-72
2022/08/27 02:39:05;;;;;;;4.63;2.75;;;;;;;13.53;100.00;100624.19;4951710;29;20035;-72
2022/08/27 02:41:30;;;;;;;7.72;3.42;;;;;;;13.49;100.00;100619.16;4950841;28;20027;-72
2022/08/27 02:43:56;;;;;;;5.13;3.13;;;;;;;13.51;100.00;100617.31;4951653;29;20031;-72
2022/08/27 02:46:21;;;;;;;8.68;3.70;;;;;;;13.50;100.00;100624.38;4951097;29;20032;-72
2022/08/27 02:48:46;;;;;;;5.18;3.03;;;;;;;13.45;100.00;100615.84;4950725;28;20031;-72
2022/08/27 02:51:12;;;;;;;7.68;3.25;;;;;;;13.41;100.00;100608.22;4951346;28;20050;-72
2022/08/27 02:53:38;;;;;;;4.65;3.00;;;;;;;13.48;100.00;100615.69;4950524;28;20110;-72
2022/08/27 02:56:05;;;;;;;7.03;3.38;;;;;;;13.40;100.00;100603.88;4945232;28;20024;-72
2022/08/27 02:58:32;;;;;;;5.38;3.08;;;;;;;13.42;100.00;100613.38;4944192;28;20023;-72
2022/08/27 03:00:57;;;;;;;7.15;3.45;;;;;;;13.40;100.00;100604.72;4950122;28;20035;-72
2022/08/27 03:03:23;;;;;;;5.35;3.83;;;;;;;13.40;100.00;100607.38;4951034;28;20477;-72
2022/08/27 03:05:48;;;;;;;5.63;3.30;;;;;;;13.42;100.00;100612.56;4948311;28;20096;-72
2022/08/27 03:08:13;;;;;;;7.10;3.95;;;;;;;13.32;100.00;100594.59;4940811;29;20031;-72
2022/08/27 03:10:39;;;;;;;7.88;3.15;;;;;;;13.37;100.00;100607.53;4955106;28;20028;-72
2022/08/27 03:13:05;;;;;;;8.02;4.20;;;;;;;13.44;100.00;100608.03;4946588;28;20028;-72
2022/08/27 03:15:30;;;;;;;5.45;3.58;;;;;;;13.38;100.00;100589.94;4942543;28;20035;-72
2022/08/27 03:20:42;;;;;;;17.03;3.60;;;;;;;13.50;100.00;100603.25;4944261;28;20089;-72
2022/08/27 03:23:08;;;;;;;9.13;3.47;;;;;;;13.40;100.00;100580.13;4948383;29;20271;-73
2022/08/27 03:25:33;;;;;;;8.13;3.70;;;;;;;13.68;100.00;100606.59;4949464;28;20081;-72
2022/08/27 03:27:59;;;;;;;6.57;3.88;;;;;;;13.73;100.00;100615.06;4949675;28;20040;-72
2022/08/27 03:30:25;;;;;;;5.97;3.40;;;;;;;13.74;100.00;100601.78;4949724;28;20028;-73
2022/08/27 03:32:50;;;;;;;8.52;4.22;;;;;;;13.73;100.00;100599.22;4950503;28;20046;-73
2022/08/27 03:35:17;;;;;;;6.90;4.30;;;;;;;13.84;100.00;100607.38;4951668;28;20066;-73
2022/08/27 03:37:43;;;;;;;6.70;3.60;;;;;;;13.96;100.00;100614.53;4968543;28;20145;-73
2022/08/27 03:40:09;;;;;;;6.80;4.10;;;;;;;13.71;100.00;100561.50;4950865;28;20039;-73
2022/08/27 03:42:35;;;;;;;6.15;3.47;;;;;;;13.93;100.00;100598.88;4941410;28;20114;-73
2022/08/27 03:45:01;;;;;;;5.97;3.58;;;;;;;14.03;100.00;100610.59;4953590;29;20118;-73
2022/08/27 03:47:26;;;;;;;12.07;4.20;;;;;;;14.09;100.00;100612.03;4953516;28;20126;-73
2022/08/27 03:49:51;;;;;;;7.30;3.50;;;;;;;14.00;100.00;100597.56;4951994;28;20024;-73
2022/08/27 03:52:18;;;;;;;11.60;4.45;;;;;;;14.07;100.00;100601.53;4953296;28;20027;-73
2022/08/27 03:54:43;;;;;;;7.30;3.58;;;;;;;14.01;100.00;100586.06;4973518;28;20496;-73
2022/08/27 03:57:09;;;;;;;8.90;3.75;;;;;;;14.16;100.00;100608.88;4960779;28;20031;-73
2022/08/27 03:59:34;;;;;;;5.85;3.00;;;;;;;14.12;100.00;100591.53;5022971;28;20126;-73
2022/08/27 04:02:00;;;;;;;6.25;3.10;;;;;;;14.21;100.00;100606.81;4944368;28;20035;-73
2022/08/27 04:04:26;;;;;;;7.00;3.38;;;;;;;14.26;100.00;100604.72;4931206;29;20536;-73
2022/08/27 04:06:51;;;;;;;8.82;3.58;;;;;;;14.26;100.00;100593.34;4999175;28;20375;-72
2022/08/27 04:09:16;;;;;;;5.93;3.15;;;;;;;14.28;100.00;100591.44;5019487;28;20472;-73
2022/08/27 04:11:42;;;;;;;7.00;3.30;;;;;;;14.39;100.00;100604.03;4952629;28;20056;-73
2022/08/27 04:14:08;;;;;;;6.70;3.97;;;;;;;14.44;100.00;100604.56;4952287;28;20489;-73
2022/08/27 04:16:34;;;;;;;7.50;3.13;;;;;;;14.40;100.00;100589.88;4951552;28;20019;-72
2022/08/27 04:19:00;;;;;;;6.53;3.65;;;;;;;14.49;100.00;100610.44;4952317;28;20035;-72
2022/08/27 04:21:25;;;;;;;8.05;4.28;;;;;;;14.43;100.00;100600.25;4935561;28;20030;-73
2022/08/27 04:23:51;;;;;;;16.30;4.25;;;;;;;14.50;100.00;100612.13;4968169;28;20038;-73
2022/08/27 04:26:16;;;;;;;7.90;3.72;;;;;;;14.46;100.00;100607.97;4951488;28;20043;-73
2022/08/27 04:28:42;;;;;;;5.07;3.00;;;;;;;14.45;100.00;100612.41;4950447;28;20027;-73
2022/08/27 04:31:08;;;;;;;9.80;3.97;;;;;;;14.35;100.00;100592.78;4967549;28;20122;-73
2022/08/27 04:33:33;;;;;;;6.97;3.83;;;;;;;14.44;100.00;100613.34;4952000;28;20034;-73
2022/08/27 04:36:06;;;;;;;7.75;3.60;;;;;;;14.38;100.00;100610.25;4953181;28;20185;-73
2022/08/27 04:38:32;;;;;;;8.82;3.65;;;;;;;14.43;100.00;100619.56;4952377;28;20385;-74
2022/08/27 04:43:41;;;;;;;5.13;3.60;;;;;;;14.36;100.00;100615.66;4952828;28;20042;-72
2022/08/27 04:46:07;;;;;;;5.25;3.70;;;;;;;14.15;100.00;100586.06;4952280;28;20650;-72
2022/08/27 04:48:33;;;;;;;5.90;3.50;;;;;;;14.47;100.00;100628.16;4952448;28;20051;-72
2022/08/27 04:50:58;;;;;;;8.90;4.38;;;;;;;14.45;100.00;100625.63;4935159;28;20070;-76
2022/08/27 04:53:24;;;;;;;9.50;3.60;;;;;;;14.50;100.00;100638.56;4950844;28;20031;-73
2022/08/27 04:55:52;;;;;;;8.82;4.32;;;;;;;14.51;100.00;100634.97;4950430;29;20035;-73
2022/08/27 04:58:19;;;;;;;7.75;4.55;;;;;;;14.54;100.00;100632.97;4949120;28;20156;-73
2022/08/27 05:00:47;;;;;;;10.48;4.07;;;;;;;14.53;100.00;100627.81;4977100;28;20036;-73
2022/08/27 05:03:14;;;;;;;8.05;3.95;;;;;;;14.58;100.00;100636.28;4934974;29;20031;-72
2022/08/27 05:05:40;;;;;;;8.38;4.13;;;;;;;14.52;100.00;100620.81;4952608;28;20935;-74
2022/08/27 05:08:06;;;;;;;8.20;3.55;;;;;;;14.58;100.00;100631.00;4926492;28;20051;-72
2022/08/27 05:10:43;;;;;;;4.68;3.20;;;;;;;14.53;100.00;100617.22;4958030;28;20027;-73
2022/08/27 05:13:09;;;;;;;13.40;4.55;;;;;;;14.54;100.00;100635.63;4954262;28;20098;-72
2022/08/27 05:15:34;;;;;;;7.57;3.90;;;;;;;14.45;100.00;100608.91;4935356;28;20115;-71
2022/08/27 05:18:00;;;;;;;6.55;3.95;;;;;;;14.62;100.00;100641.28;5018658;28;20034;-72
2022/08/27 05:20:27;;;;;;;6.53;3.60;;;;;;;14.64;100.00;100643.81;4950740;28;20528;-73
2022/08/27 05:22:52;;;;;;;6.97;4.03;;;;;;;14.64;100.00;100631.47;5017891;28;20028;-72
2022/08/27 05:25:17;;;;;;;9.38;4.78;;;;;;;14.66;100.00;100637.53;4952318;28;20358;-73
2022/08/27 05:27:43;;;;;;;6.70;3.92;;;;;;;14.39;100.00;100583.72;4949978;28;20042;-73
2022/08/27 05:30:09;;;;;;;9.20;3.45;;;;;;;14.64;100.00;100620.88;4940587;29;20027;-73
2022/08/27 05:32:35;;;;;;;10.35;4.00;;;;;;;14.71;100.00;100637.22;5018194;28;20035;-73
2022/08/27 05:35:00;;;;;;;6.45;3.20;;;;;;;14.74;100.00;100643.16;4951259;28;20550;-73
2022/08/27 05:37:25;;;;;;;6.40;3.63;;;;;;;14.67;100.00;100631.25;4950843;28;20028;-73
2022/08/27 05:39:51;;;;;;;10.85;4.40;;;;;;;14.81;100.00;100638.31;4951575;28;20493;-73
2022/08/27 05:42:18;;;;;;;8.77;3.67;;;;;;;14.84;100.00;100643.41;4951469;28;20038;-73
2022/08/27 05:44:43;;;;;;;6.53;3.72;;;;;;;14.87;100.00;100653.78;4964989;28;20031;-73
2022/08/27 05:47:09;;;;;;;8.20;3.88;;;;;;;14.70;100.00;100624.94;4939144;28;20485;-72
2022/08/27 05:49:34;;;;;;;7.43;3.45;;;;;;;14.84;100.00;100649.56;4950115;28;20122;-72
2022/08/27 05:52:00;;;;;;;7.38;3.55;;;;;;;14.93;100.00;100653.44;4951530;28;20028;-72
2022/08/27 05:54:25;;;;;;;6.88;3.83;;;;;;;14.90;100.00;100645.69;4939167;28;20068;-72
2022/08/27 05:56:50;;;;;;;8.93;3.50;;;;;;;14.87;100.00;100645.03;4951059;28;20443;-72
2022/08/27 06:02:00;;;;;;;;;;;;;;;14.94;100.00;100654.28;4951803;29;20096;-72
2022/08/27 06:04:26;;;;;;;13.45;3.60;;;;;;;14.69;100.00;100615.31;4942060;28;19932;-72
2022/08/27 06:06:51;;;;;;;6.70;3.20;;;;;;;14.92;100.00;100649.06;4928110;28;20036;-72
2022/08/27 06:09:22;;;;;;;6.30;3.03;;;;;;;14.92;100.00;100657.00;4949886;28;20053;-72
2022/08/27 06:11:47;;;;;;;6.80;3.75;;;;;;;14.97;100.00;100654.91;4966379;28;20035;-72
2022/08/27 06:14:13;;;;;;;7.35;4.30;;;;;;;14.85;100.00;100639.81;4950174;28;20092;-73
2022/08/27 06:16:39;;;;;;;8.18;3.53;;;;;;;14.87;100.00;100627.34;4982322;28;20080;-72
2022/08/27 06:19:05;;;;;;;6.85;3.35;;;;;;;14.94;100.00;100643.69;4969533;28;20768;-73
2022/08/27 06:21:32;;;;;;;10.15;3.90;;;;;;;14.74;100.00;100611.41;4951228;28;20107;-73
2022/08/27 06:23:57;;;;;;;9.30;4.25;;;;;;;14.97;100.00;100649.63;4949926;29;20077;-73
2022/08/27 06:26:24;;;;;;;5.88;3.33;;;;;;;15.08;100.00;100659.50;4963394;28;20482;-73
2022/08/27 06:28:49;;;;;;;6.80;3.33;;;;;;;15.09;100.00;100658.56;4951195;28;20031;-73
2022/08/27 06:31:21;;;;;;;9.32;3.95;;;;;;;15.12;100.00;100659.22;4951123;28;20110;-72
2022/08/27 06:33:48;;;;;;;7.90;3.88;;;;;;;15.14;100.00;100652.03;4933048;29;20035;-73
2022/08/27 06:36:18;;;;;;;10.25;3.13;;;;;;;15.11;100.00;100646.94;4950705;28;20034;-72
2022/08/27 06:38:44;;;;;;;8.55;3.55;;;;;;;15.12;100.00;100637.19;4917005;29;20366;-73
2022/08/27 06:41:12;;;;;;;6.78;3.88;;;;;;;15.24;100.00;100660.25;4965015;28;20039;-72
2022/08/27 06:43:39;;;;;;;9.27;3.45;;;;;;;15.30;100.00;100658.03;4950642;28;20031;-72
2022/08/27 06:46:06;;;;;;;12.10;3.70;;;;;;;15.31;100.00;100654.41;4949852;28;20027;-73
2022/08/27 06:48:32;;;;;;;7.43;3.78;;;;;;;15.12;100.00;100624.81;4949026;28;20536;-73
2022/08/27 06:50:57;;;;;;;8.93;3.42;;;;;;;15.33;100.00;100652.53;4949046;28;20035;-72
2022/08/27 06:53:23;;;;;;;9.43;3.72;;;;;;;15.35;100.00;100655.94;4945514;28;20019;-72
2022/08/27 06:55:48;;;;;;;6.28;3.83;;;;;;;15.44;100.00;100667.72;4947506;29;20480;-73
2022/08/27 06:58:15;;;;;;;9.57;3.95;;;;;;;15.45;100.00;100660.59;4965774;28;20110;-73
2022/08/27 07:00:41;;;;;;;9.43;3.80;;;;;;;15.49;100.00;100654.19;4932989;29;20054;-73
2022/08/27 07:03:07;;;;;;;12.10;4.22;;;;;;;15.55;100.00;100669.69;4947757;28;20055;-72
2022/08/27 07:05:34;;;;;;;8.68;3.90;;;;;;;15.57;100.00;100659.84;4950503;28;20059;-72
2022/08/27 07:08:00;;;;;;;10.82;3.83;;;;;;;15.62;100.00;100660.38;4947206;28;20027;-73
2022/08/27 07:10:25;;;;;;;7.63;3.58;;;;;;;15.53;100.00;100634.50;4940825;28;20046;-73
2022/08/27 07:12:50;;;;;;;7.25;4.25;;;;;;;15.66;100.00;100659.22;4951566;28;20058;-72
2022/08/27 07:15:16;;;;;;;5.85;3.45;;;;;;;15.72;100.00;100658.81;4953903;28;20042;-72
2022/08/27 07:17:43;;;;;;;7.07;3.45;;;;;;;15.78;100.00;100663.72;4944597;28;20115;-73
2022/08/27 07:20:10;;;;;;;6.78;3.63;;;;;;;15.87;100.00;100667.53;4953953;28;20389;-73
2022/08/27 07:22:39;;;;;;;8.32;4.30;;;;;;;15.90;100.00;100662.88;4940414;28;20062;-73
2022/08/27 07:25:05;;;;;;;6.88;3.25;;;;;;;15.92;100.00;100660.94;4954306;28;20127;-73
2022/08/27 07:27:30;;;;;;;8.05;3.50;;;;;;;15.99;100.00;100662.25;4935947;28;20425;-73
2022/08/27 07:29:57;;;;;;;7.60;3.80;;;;;;;16.05;100.00;100659.19;4948176;29;20085;-72
2022/08/27 07:32:22;;;;;;;11.63;3.90;;;;;;;16.11;100.00;100655.25;5012783;28;20027;-72
2022/08/27 07:34:48;;;;;;;7.55;3.65;;;;;;;16.20;100.00;100665.22;4953744;29;20180;-72
2022/08/27 07:37:13;;;;;;;10.32;3.58;;;;;;;16.28;100.00;100668.19;4953592;28;20035;-72
2022/08/27 07:39:39;;;;;;;11.20;3.92;;;;;;;16.23;100.00;100657.06;4941293;28;20063;-73
2022/08/27 07:44:48;;;;;;;5.37;2.63;;;;;;;16.35;100.00;100674.78;4938549;29;20051;-72
2022/08/27 07:47:14;;;;;;;5.60;3.08;;;;;;;16.29;100.00;100657.47;4953237;28;20286;-72
2022/08/27 07:49:39;;;;;;;6.88;4.07;;;;;;;16.44;100.00;100678.59;4948425;28;20099;-72
2022/08/27 07:52:05;;;;;;;7.07;2.65;;;;;;;16.47;100.00;100683.66;4940951;28;20105;-72
2022/08/27 07:54:30;;;;;;;7.32;3.80;;;;;;;16.48;100.00;100677.41;4951381;28;20039;-74
2022/08/27 07:56:56;;;;;;;12.82;3.50;;;;;;;16.50;100.00;100680.78;4948070;28;20389;-73
2022/08/27 07:59:23;;;;;;;13.23;3.78;;;;;;;16.52;100.00;100689.53;4936918;28;20103;-73
2022/08/27 08:01:48;;;;;;;7.93;3.63;;;;;;;16.42;100.00;100673.41;4930236;28;20046;-73
2022/08/27 08:04:14;;;;;;;7.95;3.45;;;;;;;16.41;100.00;100670.84;4952056;28;20039;-73
2022/08/27 08:06:40;;;;;;;4.65;2.75;;;;;;;16.61;100.00;100688.91;5009742;28;20093;-73
2022/08/27 08:09:06;;;;;;;7.80;3.97;;;;;;;16.55;100.00;100692.84;4952238;28;20470;-71
2022/08/27 08:11:32;;;;;;;6.25;3.47;;;;;;;16.65;100.00;100698.34;4946501;28;20366;-73
2022/08/27 08:13:58;;;;;;;7.57;3.85;;;;;;;16.52;100.00;100660.34;4952796;29;20035;-72
2022/08/27 08:16:24;;;;;;;6.90;3.35;;;;;;;16.82;100.00;100696.19;4953432;28;20100;-72
2022/08/27 08:18:50;;;;;;;15.60;2.90;;;;;;;16.81;100.00;100683.03;4951857;28;20355;-72
2022/08/27 08:21:15;;;;;;;9.02;3.05;;;;;;;16.91;100.00;100686.72;4936832;28;20082;-72
2022/08/27 08:23:41;;;;;;;7.35;3.42;;;;;;;17.09;100.00;100708.44;4944907;28;20054;-71
2022/08/27 08:26:08;;;;;;;7.45;3.17;;;;;;;17.11;100.00;100702.06;4953142;28;20498;-73
2022/08/27 08:28:34;;;;;;;9.73;3.15;;;;;;;17.16;100.00;100694.63;4947810;28;20031;-72
2022/08/27 08:31:00;;;;;;;6.35;3.22;;;;;;;16.93;100.00;100666.22;4937771;29;20402;-72
2022/08/27 08:33:26;;;;;;;8.52;2.95;;;;;;;17.22;100.00;100715.41;4941972;28;20089;-72
2022/08/27 08:35:52;;;;;;;6.55;3.13;;;;;;;17.08;100.00;100690.81;4939310;28;20023;-71
2022/08/27 08:38:18;;;;;;;6.63;2.67;;;;;;;17.24;100.00;100705.50;4936050;29;20039;-72
2022/08/27 08:40:49;;;;;;;7.75;3.33;;;;;;;17.20;100.00;100712.00;4936750;28;20460;-72
2022/08/27 08:43:28;;;;;;;10.23;3.80;;;;;;;16.95;100.00;100685.53;4949503;28;20454;-73
2022/08/27 08:45:55;;;;;;;8.25;3.60;;;;;;;17.11;100.00;100702.06;4952971;28;20031;-72
2022/08/27 08:48:23;;;;;;;12.50;3.40;;;;;;;17.09;100.00;100687.19;4934168;28;20106;-70
2022/08/27 08:51:09;;;;;;;6.93;3.08;;;;;;;17.43;100.00;100714.81;4945915;28;20036;-72
2022/08/27 08:53:38;;;;;;;6.75;3.33;;;;;;;17.49;100.00;100722.31;5000538;28;20409;-72
2022/08/27 08:56:08;;;;;;;4.97;2.72;;;;;;;17.61;100.00;100721.44;4936249;28;20048;-72
2022/08/27 08:58:39;;;;;;;6.78;3.17;;;;;;;17.72;100.00;100724.16;4919966;28;20032;-72
2022/08/27 09:01:06;;;;;;;5.82;2.88;;;;;;;17.68;100.00;100704.06;4936074;28;20039;-71
2022/08/27 09:03:35;;;;;;;6.80;2.95;;;;;;;17.90;100.00;100728.09;4921053;28;20039;-72
2022/08/27 09:06:04;;;;;;;5.90;2.80;;;;;;;17.99;100.00;100724.75;4936434;28;20119;-72
2022/08/27 09:08:39;;;;;;;5.68;2.65;;;;;;;18.13;100.00;100729.88;4937205;28;20036;-72
2022/08/27 09:11:25;;;;;;;7.80;3.00;;;;;;;18.27;100.00;100724.34;4998545;28;20039;-73
2022/08/27 09:13:55;;;;;;;10.82;3.00;;;;;;;18.20;100.00;100725.78;4942525;28;20043;-73
2022/08/27 09:16:20;;;;;;;7.72;2.97;;;;;;;18.22;100.00;100715.84;4925876;29;20023;-72
2022/08/27 09:18:48;;;;;;;8.30;3.50;;;;;;;18.36;100.00;100720.97;4998021;28;20023;-70
2022/08/27 09:21:22;;;;;;;6.32;2.38;;;;;;;18.35;100.00;100729.09;4953001;29;20089;-72
2022/08/27 09:23:50;;;;;;;;;;;;;;;18.36;100.00;100720.97;4950323;29;20046;-72
2022/08/27 09:26:26;;;;;;;7.22;3.17;;;;;;;18.49;100.00;100725.31;4952060;28;19962;-71
2022/08/27 09:29:14;;;;;;;5.93;2.83;;;;;;;18.39;100.00;100717.22;4952669;28;20031;-73
2022/08/27 09:31:55;;;;;;;5.20;2.78;;;;;;;18.42;100.00;100726.78;4951671;28;20059;-72
2022/08/27 09:34:22;;;;;;;7.13;3.35;;;;;;;18.05;100.00;100692.34;4952029;28;20035;-73
2022/08/27 09:37:24;;;;;;;9.85;3.03;;;;;;;18.37;100.00;100737.78;4954522;28;20027;-72
2022/08/27 09:40:00;;;;;;;6.30;2.92;;;;;;;18.32;100.00;100730.16;4982361;28;20101;-72
2022/08/27 09:42:33;;;;;;;8.90;4.68;;;;;;;18.37;100.00;100741.31;4952106;28;20035;-70
2022/08/27 09:44:59;;;;;;;5.50;2.35;;;;;;;18.30;100.00;100724.09;4934740;28;20047;-72
2022/08/27 09:47:25;;;;;;;4.45;2.28;;;;;;;18.20;100.00;100731.09;4949160;28;20023;-72
2022/08/27 09:50:06;;;;;;;4.82;2.63;;;;;;;18.27;100.00;100742.97;4928135;28;20424;-72
2022/08/27 09:53:01;;;;;;;5.95;2.63;;;;;;;18.34;100.00;100749.53;4934807;28;20557;-73
2022/08/27 09:55:33;;;;;;;4.78;2.13;;;;;;;18.27;100.00;100736.78;4946926;28;20047;-72
2022/08/27 09:57:59;;;;;;;8.20;2.83;;;;;;;17.94;100.00;100681.72;4950661;29;20042;-72
2022/08/27 10:00:35;;;;;;;4.53;2.55;;;;;;;18.00;100.00;100686.56;4934905;28;20031;-73
2022/08/27 10:03:02;;;;;;;6.60;3.38;;;;;;;18.24;100.00;100734.38;4951830;29;20088;-73
2022/08/27 10:05:44;;;;;;;7.05;2.30;;;;;;;18.06;100.00;100712.69;4966883;28;20034;-72
2022/08/27 10:08:12;;;;;;;7.65;2.60;;;;;;;18.31;100.00;100732.94;4942748;28;20078;-73
2022/08/27 10:10:53;;;;;;;5.65;2.65;;;;;;;18.26;100.00;100735.09;4951165;28;20054;-72
2022/08/27 10:13:39;;;;;;;6.03;2.75;;;;;;;18.31;100.00;100733.78;4931170;29;20039;-71
2022/08/27 10:16:08;;;;;;;5.15;2.53;;;;;;;18.37;100.00;100738.63;4938056;28;20031;-71
2022/08/27 10:18:49;;;;;;;10.98;2.90;;;;;;;18.48;100.00;100735.16;4951488;28;20045;-72
2022/08/27 10:21:22;;;;;;;5.50;2.78;;;;;;;18.44;100.00;100733.69;4948747;28;20111;-72
2022/08/27 10:24:18;;;;;;;5.30;2.60;;;;;;;18.51;100.00;100736.75;5005422;28;20035;-71
2022/08/27 10:27:02;;;;;;;6.57;2.83;;;;;;;18.54;100.00;100729.38;4933635;28;20449;-72
2022/08/27 10:29:48;;;;;;;5.23;2.93;;;;;;;18.67;100.00;100737.25;4943785;28;20393;-72
2022/08/27 10:32:32;;;;;;;5.38;2.88;;;;;;;18.72;100.00;100725.25;5012488;28;20801;-73
2022/08/27 10:35:08;;;;;;;8.52;2.40;;;;;;;18.77;100.00;100720.44;4951488;29;20043;-73
2022/08/27 10:37:58;;;;;;;4.43;2.67;;;;;;;18.92;100.00;100729.03;5008041;28;20031;-68
2022/08/27 10:41:02;;;;;;;6.75;3.10;;;;;;;18.88;100.00;100738.22;4945735;28;20039;-65
2022/08/27 10:43:51;;;;;;;8.52;3.58;;;;;;;18.91;100.00;100724.66;4938820;28;20031;-70
2022/08/27 10:46:41;;;;;;;7.30;3.13;;;;;;;18.87;100.00;100724.06;5008400;28;20031;-69
2022/08/27 10:49:12;;;;;;;9.52;3.92;;;;;;;18.93;100.00;100719.19;4954655;28;20490;-68
2022/08/27 10:52:09;;;;;;;5.70;3.58;;;;;;;19.06;100.00;100726.09;4948428;29;20115;-69
2022/08/27 10:54:37;;;;;;;6.05;3.30;;;;;;;19.22;100.00;100726.56;4955022;28;20094;-68
2022/08/27 10:57:15;;;;;;;4.88;2.58;;;;;;;19.30;100.00;100726.78;4977681;28;20410;-69
2022/08/27 10:59:49;;;;;;;6.47;3.25;;;;;;;19.32;100.00;100721.34;5004215;28;20039;-67
2022/08/27 11:02:30;;;;;;;;;;;;;;;19.47;100.00;100719.28;4942976;28;20375;-68
2022/08/27 11:05:16;;;;;;;4.07;2.30;;;;;;;19.54;100.00;100726.63;4946502;28;19918;-74
2022/08/27 11:07:46;;;;;;;4.55;2.58;;;;;;;19.57;100.00;100718.38;4952198;28;20038;-71
2022/08/27 11:10:22;;;;;;;5.90;3.10;;;;;;;19.63;100.00;100717.03;4945289;29;20035;-72
2022/08/27 11:12:49;;;;;;;6.05;3.17;;;;;;;19.61;100.00;100716.31;5006727;28;20043;-72
2022/08/27 11:15:26;;;;;;;7.10;3.55;;;;;;;19.44;100.00;100714.19;4952064;28;20562;-71
2022/08/27 11:18:19;;;;;;;7.32;3.15;;;;;;;19.31;100.00;100701.84;4954026;28;20035;-73
2022/08/27 11:20:52;;;;;;;8.20;2.78;;;;;;;19.43;100.00;100708.03;4953483;28;20114;-72
2022/08/27 11:23:26;;;;;;;8.02;3.90;;;;;;;19.42;100.00;100706.31;4947471;29;20101;-73
2022/08/27 11:25:57;;;;;;;7.70;3.57;;;;;;;19.48;100.00;100703.16;4928608;28;20043;-74
2022/08/27 11:28:28;;;;;;;12.35;4.22;;;;;;;19.48;100.00;100699.63;4954520;28;20036;-73
2022/08/27 11:31:07;;;;;;;9.77;3.42;;;;;;;19.60;100.00;100714.63;4948600;29;20031;-72
2022/08/27 11:33:39;;;;;;;9.15;3.67;;;;;;;19.58;100.00;100706.75;4954364;28;20038;-73
2022/08/27 11:36:07;;;;;;;8.32;3.58;;;;;;;19.68;100.00;100706.81;4940243;28;20470;-73